Newcastle, Utah
Current Conditions -  °F | °C
As of 3:53 AM on Thursday 23 Oct 2014 (Local Time) from KCDC Reporting Station
Clear Clear  
Wind Chill: 37°   Ceiling: Unl
Heat Index: 37°   Visibility: 10mi
Dew Point: 28°   Wind: 0mph
Humidity: 70%   Direction: NA
Pressure: 30.21"   Gusts: NA
Location:  37.67°N, 113.55°W
Report Text: KCDC 230953Z AUTO 00000KT 10SM CLR 03/M02 A3021 RMK AO2 SLP192 T00281022 TSNO
Loading
Personal Weather Stations






























Interactive Weather Map
Tropical Storm Tracking
New forecast layout! Learn more

10-Day Weather Forecast

Advertisements
Track Severe Weather on mobile